sensor_id;sensor_type;location;lat;lon;timestamp;pressure;altitude;pressure_sealevel;temperature
68939;BMP180;59064;45.294;11.816;2023-08-06T00:00:25;100317.20;;;20.00
68939;BMP180;59064;45.294;11.816;2023-08-06T00:02:50;100314.80;;;20.00
68939;BMP180;59064;45.294;11.816;2023-08-06T00:05:16;100316.20;;;20.00
68939;BMP180;59064;45.294;11.816;2023-08-06T00:07:48;100313.20;;;20.00
68939;BMP180;59064;45.294;11.816;2023-08-06T00:10:16;100310.80;;;19.90
68939;BMP180;59064;45.294;11.816;2023-08-06T00:12:42;100307.00;;;19.94
68939;BMP180;59064;45.294;11.816;2023-08-06T00:15:09;100305.40;;;19.90
68939;BMP180;59064;45.294;11.816;2023-08-06T00:17:34;100303.60;;;19.90
68939;BMP180;59064;45.294;11.816;2023-08-06T00:20:02;100300.60;;;19.90
68939;BMP180;59064;45.294;11.816;2023-08-06T00:22:36;100296.60;;;19.90
68939;BMP180;59064;45.294;11.816;2023-08-06T00:25:04;100296.20;;;19.90
68939;BMP180;59064;45.294;11.816;2023-08-06T00:27:30;100297.40;;;19.90
68939;BMP180;59064;45.294;11.816;2023-08-06T00:29:55;100292.80;;;19.90
68939;BMP180;59064;45.294;11.816;2023-08-06T00:32:21;100291.00;;;19.90
68939;BMP180;59064;45.294;11.816;2023-08-06T00:34:47;100284.60;;;19.90
68939;BMP180;59064;45.294;11.816;2023-08-06T00:37:18;100278.60;;;19.98
68939;BMP180;59064;45.294;11.816;2023-08-06T00:39:44;100277.60;;;20.00
68939;BMP180;59064;45.294;11.816;2023-08-06T00:42:11;100272.60;;;20.10
68939;BMP180;59064;45.294;11.816;2023-08-06T00:44:38;100269.40;;;20.20
68939;BMP180;59064;45.294;11.816;2023-08-06T00:47:05;100272.60;;;20.36
68939;BMP180;59064;45.294;11.816;2023-08-06T00:49:31;100274.60;;;20.42
68939;BMP180;59064;45.294;11.816;2023-08-06T00:51:57;100276.00;;;20.50
68939;BMP180;59064;45.294;11.816;2023-08-06T00:54:23;100273.80;;;20.52
68939;BMP180;59064;45.294;11.816;2023-08-06T00:56:50;100279.00;;;20.60
68939;BMP180;59064;45.294;11.816;2023-08-06T00:59:15;100282.60;;;20.50
68939;BMP180;59064;45.294;11.816;2023-08-06T01:01:41;100284.60;;;20.50
68939;BMP180;59064;45.294;11.816;2023-08-06T01:04:07;100278.20;;;20.40
68939;BMP180;59064;45.294;11.816;2023-08-06T01:12:42;100259.60;;;20.00
68939;BMP180;59064;45.294;11.816;2023-08-06T01:15:23;100262.00;;;19.90
68939;BMP180;59064;45.294;11.816;2023-08-06T01:17:50;100267.40;;;19.90
68939;BMP180;59064;45.294;11.816;2023-08-06T01:20:15;100266.00;;;19.90
68939;BMP180;59064;45.294;11.816;2023-08-06T01:22:41;100267.80;;;20.00
68939;BMP180;59064;45.294;11.816;2023-08-06T01:25:07;100261.40;;;20.10
68939;BMP180;59064;45.294;11.816;2023-08-06T01:27:57;100265.80;;;20.16
68939;BMP180;59064;45.294;11.816;2023-08-06T01:30:31;100267.60;;;20.10
68939;BMP180;59064;45.294;11.816;2023-08-06T01:33:04;100263.80;;;20.20
68939;BMP180;59064;45.294;11.816;2023-08-06T01:35:32;100268.40;;;20.20
68939;BMP180;59064;45.294;11.816;2023-08-06T01:37:59;100269.20;;;20.20
68939;BMP180;59064;45.294;11.816;2023-08-06T01:40:25;100275.60;;;20.14
68939;BMP180;59064;45.294;11.816;2023-08-06T01:42:52;100274.80;;;20.10
68939;BMP180;59064;45.294;11.816;2023-08-06T01:45:17;100278.40;;;20.00
68939;BMP180;59064;45.294;11.816;2023-08-06T01:47:43;100273.40;;;20.00
68939;BMP180;59064;45.294;11.816;2023-08-06T01:50:09;100271.80;;;20.10
68939;BMP180;59064;45.294;11.816;2023-08-06T01:52:34;100266.80;;;20.20
68939;BMP180;59064;45.294;11.816;2023-08-06T01:55:00;100267.60;;;20.20
68939;BMP180;59064;45.294;11.816;2023-08-06T01:57:25;100265.00;;;20.20
68939;BMP180;59064;45.294;11.816;2023-08-06T01:59:51;100263.80;;;20.20
68939;BMP180;59064;45.294;11.816;2023-08-06T02:02:17;100268.80;;;20.20
68939;BMP180;59064;45.294;11.816;2023-08-06T02:04:42;100265.80;;;20.30
68939;BMP180;59064;45.294;11.816;2023-08-06T02:07:08;100262.00;;;20.30
68939;BMP180;59064;45.294;11.816;2023-08-06T02:09:33;100256.20;;;20.40
68939;BMP180;59064;45.294;11.816;2023-08-06T02:12:00;100255.20;;;20.40
68939;BMP180;59064;45.294;11.816;2023-08-06T02:14:26;100255.00;;;20.40
68939;BMP180;59064;45.294;11.816;2023-08-06T02:16:52;100250.20;;;20.40
68939;BMP180;59064;45.294;11.816;2023-08-06T02:19:17;100238.80;;;20.40
68939;BMP180;59064;45.294;11.816;2023-08-06T02:21:43;100229.80;;;20.40
68939;BMP180;59064;45.294;11.816;2023-08-06T02:24:08;100232.80;;;20.30
68939;BMP180;59064;45.294;11.816;2023-08-06T02:26:34;100234.80;;;20.20
68939;BMP180;59064;45.294;11.816;2023-08-06T02:28:59;100233.40;;;20.02
68939;BMP180;59064;45.294;11.816;2023-08-06T02:31:25;100227.00;;;19.90
68939;BMP180;59064;45.294;11.816;2023-08-06T02:33:50;100224.20;;;19.80
68939;BMP180;59064;45.294;11.816;2023-08-06T02:36:16;100219.20;;;19.60
68939;BMP180;59064;45.294;11.816;2023-08-06T02:38:42;100219.80;;;19.50
68939;BMP180;59064;45.294;11.816;2023-08-06T02:41:07;100216.80;;;19.40
68939;BMP180;59064;45.294;11.816;2023-08-06T02:43:33;100220.60;;;19.30
68939;BMP180;59064;45.294;11.816;2023-08-06T02:45:59;100223.60;;;19.20
68939;BMP180;59064;45.294;11.816;2023-08-06T02:48:26;100223.40;;;19.10
68939;BMP180;59064;45.294;11.816;2023-08-06T02:50:52;100222.20;;;19.04
68939;BMP180;59064;45.294;11.816;2023-08-06T02:53:18;100218.00;;;19.00
68939;BMP180;59064;45.294;11.816;2023-08-06T02:55:47;100221.60;;;18.90
68939;BMP180;59064;45.294;11.816;2023-08-06T02:58:14;100220.00;;;18.80
68939;BMP180;59064;45.294;11.816;2023-08-06T03:00:40;100219.60;;;18.70
68939;BMP180;59064;45.294;11.816;2023-08-06T03:03:06;100213.80;;;18.70
68939;BMP180;59064;45.294;11.816;2023-08-06T03:05:32;100221.40;;;18.60
68939;BMP180;59064;45.294;11.816;2023-08-06T03:07:57;100223.40;;;18.60
68939;BMP180;59064;45.294;11.816;2023-08-06T03:10:23;100222.80;;;18.50
68939;BMP180;59064;45.294;11.816;2023-08-06T03:12:48;100218.60;;;18.50
68939;BMP180;59064;45.294;11.816;2023-08-06T03:15:14;100216.00;;;18.50
68939;BMP180;59064;45.294;11.816;2023-08-06T03:17:40;100217.60;;;18.42
68939;BMP180;59064;45.294;11.816;2023-08-06T03:20:06;100218.80;;;18.40
68939;BMP180;59064;45.294;11.816;2023-08-06T03:22:32;100217.60;;;18.40
68939;BMP180;59064;45.294;11.816;2023-08-06T03:24:57;100222.20;;;18.40
68939;BMP180;59064;45.294;11.816;2023-08-06T03:27:23;100221.80;;;18.38
68939;BMP180;59064;45.294;11.816;2023-08-06T03:29:49;100216.60;;;18.30
68939;BMP180;59064;45.294;11.816;2023-08-06T03:32:15;100211.80;;;18.30
68939;BMP180;59064;45.294;11.816;2023-08-06T03:34:41;100200.40;;;18.20
68939;BMP180;59064;45.294;11.816;2023-08-06T03:37:07;100200.00;;;18.20
68939;BMP180;59064;45.294;11.816;2023-08-06T03:39:32;100208.00;;;18.20
68939;BMP180;59064;45.294;11.816;2023-08-06T03:41:58;100210.60;;;18.18
68939;BMP180;59064;45.294;11.816;2023-08-06T03:44:23;100209.80;;;18.20
68939;BMP180;59064;45.294;11.816;2023-08-06T03:46:49;100208.60;;;18.20
68939;BMP180;59064;45.294;11.816;2023-08-06T03:49:14;100211.40;;;18.20
68939;BMP180;59064;45.294;11.816;2023-08-06T03:51:40;100219.80;;;18.20
68939;BMP180;59064;45.294;11.816;2023-08-06T03:54:05;100220.80;;;18.20
68939;BMP180;59064;45.294;11.816;2023-08-06T03:56:31;100228.80;;;18.20
68939;BMP180;59064;45.294;11.816;2023-08-06T03:58:57;100224.20;;;18.22
68939;BMP180;59064;45.294;11.816;2023-08-06T04:01:22;100224.00;;;18.24
68939;BMP180;59064;45.294;11.816;2023-08-06T04:03:48;100213.40;;;18.20
68939;BMP180;59064;45.294;11.816;2023-08-06T04:06:13;100207.60;;;18.20
68939;BMP180;59064;45.294;11.816;2023-08-06T04:08:39;100208.40;;;18.20
68939;BMP180;59064;45.294;11.816;2023-08-06T04:11:04;100212.00;;;18.20
68939;BMP180;59064;45.294;11.816;2023-08-06T04:13:30;100216.80;;;18.10
68939;BMP180;59064;45.294;11.816;2023-08-06T04:16:01;100220.00;;;18.10
68939;BMP180;59064;45.294;11.816;2023-08-06T04:18:27;100216.80;;;18.10
68939;BMP180;59064;45.294;11.816;2023-08-06T04:20:53;100209.00;;;18.10
68939;BMP180;59064;45.294;11.816;2023-08-06T04:23:20;100196.60;;;18.00
68939;BMP180;59064;45.294;11.816;2023-08-06T04:25:46;100195.20;;;18.00
68939;BMP180;59064;45.294;11.816;2023-08-06T04:28:12;100177.00;;;18.00
68939;BMP180;59064;45.294;11.816;2023-08-06T04:30:38;100159.60;;;18.00
68939;BMP180;59064;45.294;11.816;2023-08-06T04:33:03;100143.20;;;18.00
68939;BMP180;59064;45.294;11.816;2023-08-06T04:35:30;100140.40;;;18.00
68939;BMP180;59064;45.294;11.816;2023-08-06T04:37:55;100152.00;;;18.00
68939;BMP180;59064;45.294;11.816;2023-08-06T04:40:21;100170.00;;;18.00
68939;BMP180;59064;45.294;11.816;2023-08-06T04:42:46;100174.40;;;18.00
68939;BMP180;59064;45.294;11.816;2023-08-06T04:45:13;100173.20;;;18.00
68939;BMP180;59064;45.294;11.816;2023-08-06T04:47:38;100173.00;;;18.00
68939;BMP180;59064;45.294;11.816;2023-08-06T04:50:07;100176.40;;;18.00
68939;BMP180;59064;45.294;11.816;2023-08-06T04:52:33;100178.80;;;18.00
68939;BMP180;59064;45.294;11.816;2023-08-06T04:54:58;100177.00;;;18.00
68939;BMP180;59064;45.294;11.816;2023-08-06T04:57:24;100183.20;;;17.92
68939;BMP180;59064;45.294;11.816;2023-08-06T04:59:49;100181.20;;;17.90
68939;BMP180;59064;45.294;11.816;2023-08-06T05:02:15;100183.40;;;17.90
68939;BMP180;59064;45.294;11.816;2023-08-06T05:04:41;100194.20;;;17.90
68939;BMP180;59064;45.294;11.816;2023-08-06T05:07:06;100201.20;;;18.00
68939;BMP180;59064;45.294;11.816;2023-08-06T05:09:32;100209.40;;;18.10
68939;BMP180;59064;45.294;11.816;2023-08-06T05:12:01;100207.60;;;18.18
68939;BMP180;59064;45.294;11.816;2023-08-06T05:14:27;100205.60;;;18.30
68939;BMP180;59064;45.294;11.816;2023-08-06T05:16:53;100213.40;;;18.50
68939;BMP180;59064;45.294;11.816;2023-08-06T05:19:18;100214.60;;;18.70
68939;BMP180;59064;45.294;11.816;2023-08-06T05:21:44;100211.40;;;18.80
68939;BMP180;59064;45.294;11.816;2023-08-06T05:24:10;100200.00;;;18.94
68939;BMP180;59064;45.294;11.816;2023-08-06T05:26:35;100204.00;;;19.00
68939;BMP180;59064;45.294;11.816;2023-08-06T05:29:01;100212.40;;;19.10
68939;BMP180;59064;45.294;11.816;2023-08-06T05:31:27;100211.80;;;19.20
68939;BMP180;59064;45.294;11.816;2023-08-06T05:33:54;100216.60;;;19.22
68939;BMP180;59064;45.294;11.816;2023-08-06T05:36:20;100212.80;;;19.44
68939;BMP180;59064;45.294;11.816;2023-08-06T05:38:47;100206.40;;;19.60
68939;BMP180;59064;45.294;11.816;2023-08-06T05:41:13;100196.80;;;19.60
68939;BMP180;59064;45.294;11.816;2023-08-06T05:43:39;100186.40;;;19.60
68939;BMP180;59064;45.294;11.816;2023-08-06T05:46:04;100192.80;;;19.80
68939;BMP180;59064;45.294;11.816;2023-08-06T05:48:30;100196.20;;;20.02
68939;BMP180;59064;45.294;11.816;2023-08-06T05:50:57;100199.80;;;20.30
68939;BMP180;59064;45.294;11.816;2023-08-06T05:53:24;100202.80;;;20.42
68939;BMP180;59064;45.294;11.816;2023-08-06T05:55:50;100202.80;;;20.54
68939;BMP180;59064;45.294;11.816;2023-08-06T05:58:15;100204.20;;;20.72
68939;BMP180;59064;45.294;11.816;2023-08-06T06:00:45;100206.60;;;21.00
68939;BMP180;59064;45.294;11.816;2023-08-06T06:03:11;100202.60;;;21.20
68939;BMP180;59064;45.294;11.816;2023-08-06T06:05:39;100209.80;;;21.28
68939;BMP180;59064;45.294;11.816;2023-08-06T06:08:05;100209.80;;;21.40
68939;BMP180;59064;45.294;11.816;2023-08-06T06:10:30;100214.40;;;21.50
68939;BMP180;59064;45.294;11.816;2023-08-06T06:12:56;100218.80;;;21.60
68939;BMP180;59064;45.294;11.816;2023-08-06T06:15:22;100225.80;;;21.80
68939;BMP180;59064;45.294;11.816;2023-08-06T06:17:47;100228.20;;;22.10
68939;BMP180;59064;45.294;11.816;2023-08-06T06:20:13;100223.20;;;22.40
68939;BMP180;59064;45.294;11.816;2023-08-06T06:22:39;100220.20;;;22.60
68939;BMP180;59064;45.294;11.816;2023-08-06T06:25:05;100219.00;;;22.70
68939;BMP180;59064;45.294;11.816;2023-08-06T06:27:31;100217.40;;;22.90
68939;BMP180;59064;45.294;11.816;2023-08-06T06:29:56;100220.40;;;23.22
68939;BMP180;59064;45.294;11.816;2023-08-06T06:32:22;100216.40;;;23.40
68939;BMP180;59064;45.294;11.816;2023-08-06T06:34:48;100218.60;;;23.60
68939;BMP180;59064;45.294;11.816;2023-08-06T06:37:13;100213.40;;;23.72
68939;BMP180;59064;45.294;11.816;2023-08-06T06:39:39;100214.00;;;23.90
68939;BMP180;59064;45.294;11.816;2023-08-06T06:42:05;100219.00;;;24.00
68939;BMP180;59064;45.294;11.816;2023-08-06T06:44:30;100224.40;;;24.00
68939;BMP180;59064;45.294;11.816;2023-08-06T06:46:56;100225.00;;;24.10
68939;BMP180;59064;45.294;11.816;2023-08-06T06:49:21;100226.20;;;24.18
68939;BMP180;59064;45.294;11.816;2023-08-06T06:51:47;100227.20;;;24.10
68939;BMP180;59064;45.294;11.816;2023-08-06T06:54:12;100225.60;;;24.00
68939;BMP180;59064;45.294;11.816;2023-08-06T06:56:38;100223.80;;;23.84
68939;BMP180;59064;45.294;11.816;2023-08-06T06:59:04;100220.40;;;23.60
68939;BMP180;59064;45.294;11.816;2023-08-06T07:01:29;100221.60;;;23.48
68939;BMP180;59064;45.294;11.816;2023-08-06T07:03:55;100222.00;;;23.40
68939;BMP180;59064;45.294;11.816;2023-08-06T07:06:20;100221.60;;;23.40
68939;BMP180;59064;45.294;11.816;2023-08-06T07:08:46;100223.20;;;23.20
68939;BMP180;59064;45.294;11.816;2023-08-06T07:11:11;100223.00;;;23.18
68939;BMP180;59064;45.294;11.816;2023-08-06T07:13:37;100229.60;;;23.20
68939;BMP180;59064;45.294;11.816;2023-08-06T07:16:03;100230.20;;;23.10
68939;BMP180;59064;45.294;11.816;2023-08-06T07:18:29;100233.60;;;23.10
68939;BMP180;59064;45.294;11.816;2023-08-06T07:20:55;100223.20;;;23.10
68939;BMP180;59064;45.294;11.816;2023-08-06T07:23:23;100225.20;;;23.20
68939;BMP180;59064;45.294;11.816;2023-08-06T07:25:49;100224.00;;;23.28
68939;BMP180;59064;45.294;11.816;2023-08-06T07:28:15;100224.80;;;23.48
68939;BMP180;59064;45.294;11.816;2023-08-06T07:30:43;100224.80;;;23.60
68939;BMP180;59064;45.294;11.816;2023-08-06T07:33:09;100224.00;;;23.80
68939;BMP180;59064;45.294;11.816;2023-08-06T07:35:36;100231.60;;;23.90
68939;BMP180;59064;45.294;11.816;2023-08-06T07:38:02;100233.80;;;24.00
68939;BMP180;59064;45.294;11.816;2023-08-06T07:40:28;100233.20;;;24.20
68939;BMP180;59064;45.294;11.816;2023-08-06T07:42:54;100234.40;;;24.30
68939;BMP180;59064;45.294;11.816;2023-08-06T07:45:20;100233.80;;;24.48
68939;BMP180;59064;45.294;11.816;2023-08-06T07:47:46;100236.20;;;24.58
68939;BMP180;59064;45.294;11.816;2023-08-06T07:50:13;100233.80;;;24.60
68939;BMP180;59064;45.294;11.816;2023-08-06T07:52:39;100235.60;;;24.70
68939;BMP180;59064;45.294;11.816;2023-08-06T07:55:04;100238.00;;;24.72
68939;BMP180;59064;45.294;11.816;2023-08-06T07:57:31;100245.20;;;24.70
68939;BMP180;59064;45.294;11.816;2023-08-06T07:59:59;100247.40;;;24.70
68939;BMP180;59064;45.294;11.816;2023-08-06T08:02:25;100247.60;;;24.70
68939;BMP180;59064;45.294;11.816;2023-08-06T08:04:50;100253.40;;;24.86
68939;BMP180;59064;45.294;11.816;2023-08-06T08:07:16;100255.20;;;24.90
68939;BMP180;59064;45.294;11.816;2023-08-06T08:09:41;100252.80;;;24.96
68939;BMP180;59064;45.294;11.816;2023-08-06T08:12:07;100255.00;;;25.00
68939;BMP180;59064;45.294;11.816;2023-08-06T08:14:33;100256.80;;;25.10
68939;BMP180;59064;45.294;11.816;2023-08-06T08:17:03;100251.40;;;25.30
68939;BMP180;59064;45.294;11.816;2023-08-06T08:19:31;100249.60;;;25.40
68939;BMP180;59064;45.294;11.816;2023-08-06T08:21:57;100246.60;;;25.60
68939;BMP180;59064;45.294;11.816;2023-08-06T08:24:23;100247.00;;;25.72
68939;BMP180;59064;45.294;11.816;2023-08-06T08:26:51;100252.20;;;25.90
68939;BMP180;59064;45.294;11.816;2023-08-06T08:29:16;100250.40;;;25.90
68939;BMP180;59064;45.294;11.816;2023-08-06T08:31:42;100249.60;;;25.80
68939;BMP180;59064;45.294;11.816;2023-08-06T08:34:09;100245.60;;;25.82
68939;BMP180;59064;45.294;11.816;2023-08-06T08:36:35;100249.60;;;25.80
68939;BMP180;59064;45.294;11.816;2023-08-06T08:39:00;100245.00;;;25.80
68939;BMP180;59064;45.294;11.816;2023-08-06T08:41:29;100242.80;;;25.90
68939;BMP180;59064;45.294;11.816;2023-08-06T08:43:55;100242.40;;;26.10
68939;BMP180;59064;45.294;11.816;2023-08-06T08:46:22;100241.60;;;26.20
68939;BMP180;59064;45.294;11.816;2023-08-06T08:48:47;100237.00;;;26.10
68939;BMP180;59064;45.294;11.816;2023-08-06T08:51:13;100241.00;;;26.30
68939;BMP180;59064;45.294;11.816;2023-08-06T08:53:39;100241.00;;;26.48
68939;BMP180;59064;45.294;11.816;2023-08-06T08:56:06;100241.20;;;26.50
68939;BMP180;59064;45.294;11.816;2023-08-06T08:58:32;100241.80;;;26.60
68939;BMP180;59064;45.294;11.816;2023-08-06T09:00:58;100246.80;;;26.70
68939;BMP180;59064;45.294;11.816;2023-08-06T09:03:24;100244.20;;;26.80
68939;BMP180;59064;45.294;11.816;2023-08-06T09:05:54;100244.40;;;26.98
68939;BMP180;59064;45.294;11.816;2023-08-06T09:08:34;100252.40;;;27.10
68939;BMP180;59064;45.294;11.816;2023-08-06T09:11:02;100254.60;;;27.34
68939;BMP180;59064;45.294;11.816;2023-08-06T09:13:28;100257.40;;;27.64
68939;BMP180;59064;45.294;11.816;2023-08-06T09:15:53;100264.40;;;27.90
68939;BMP180;59064;45.294;11.816;2023-08-06T09:18:26;100261.00;;;28.14
68939;BMP180;59064;45.294;11.816;2023-08-06T09:20:56;100259.80;;;28.40
68939;BMP180;59064;45.294;11.816;2023-08-06T09:23:29;100268.60;;;28.60
68939;BMP180;59064;45.294;11.816;2023-08-06T09:25:57;100264.60;;;28.40
68939;BMP180;59064;45.294;11.816;2023-08-06T09:28:23;100268.60;;;28.40
68939;BMP180;59064;45.294;11.816;2023-08-06T09:30:50;100271.60;;;28.40
68939;BMP180;59064;45.294;11.816;2023-08-06T09:33:19;100277.20;;;28.18
68939;BMP180;59064;45.294;11.816;2023-08-06T09:35:46;100278.20;;;28.30
68939;BMP180;59064;45.294;11.816;2023-08-06T09:38:13;100283.80;;;28.36
68939;BMP180;59064;45.294;11.816;2023-08-06T09:40:39;100278.40;;;28.36
68939;BMP180;59064;45.294;11.816;2023-08-06T09:43:06;100274.80;;;28.50
68939;BMP180;59064;45.294;11.816;2023-08-06T09:45:37;100280.20;;;28.60
68939;BMP180;59064;45.294;11.816;2023-08-06T09:48:06;100281.00;;;28.50
68939;BMP180;59064;45.294;11.816;2023-08-06T09:50:35;100280.20;;;28.36
68939;BMP180;59064;45.294;11.816;2023-08-06T09:53:03;100283.80;;;28.50
68939;BMP180;59064;45.294;11.816;2023-08-06T09:55:30;100284.80;;;28.60
68939;BMP180;59064;45.294;11.816;2023-08-06T09:57:55;100285.80;;;28.60
68939;BMP180;59064;45.294;11.816;2023-08-06T10:00:22;100285.80;;;28.32
68939;BMP180;59064;45.294;11.816;2023-08-06T10:02:49;100280.60;;;28.20
68939;BMP180;59064;45.294;11.816;2023-08-06T10:05:17;100277.20;;;28.06
68939;BMP180;59064;45.294;11.816;2023-08-06T10:07:43;100280.20;;;28.10
68939;BMP180;59064;45.294;11.816;2023-08-06T10:10:10;100278.40;;;28.00
68939;BMP180;59064;45.294;11.816;2023-08-06T10:12:40;100275.20;;;27.80
68939;BMP180;59064;45.294;11.816;2023-08-06T10:15:13;100272.40;;;27.60
68939;BMP180;59064;45.294;11.816;2023-08-06T10:17:41;100270.20;;;27.80
68939;BMP180;59064;45.294;11.816;2023-08-06T10:20:08;100279.20;;;28.00
68939;BMP180;59064;45.294;11.816;2023-08-06T10:22:34;100277.40;;;27.96
68939;BMP180;59064;45.294;11.816;2023-08-06T10:25:01;100277.80;;;28.10
68939;BMP180;59064;45.294;11.816;2023-08-06T10:30:24;100282.60;;;29.00
68939;BMP180;59064;45.294;11.816;2023-08-06T10:33:02;100281.80;;;28.90
68939;BMP180;59064;45.294;11.816;2023-08-06T10:35:37;100281.20;;;29.00
68939;BMP180;59064;45.294;11.816;2023-08-06T10:40:43;100276.20;;;29.54
68939;BMP180;59064;45.294;11.816;2023-08-06T10:43:35;100272.00;;;29.54
68939;BMP180;59064;45.294;11.816;2023-08-06T10:46:09;100274.60;;;29.96
68939;BMP180;59064;45.294;11.816;2023-08-06T10:48:44;100274.00;;;30.00
68939;BMP180;59064;45.294;11.816;2023-08-06T10:51:13;100278.80;;;30.10
68939;BMP180;59064;45.294;11.816;2023-08-06T10:53:48;100275.80;;;30.20
68939;BMP180;59064;45.294;11.816;2023-08-06T10:56:23;100273.00;;;30.30
68939;BMP180;59064;45.294;11.816;2023-08-06T10:58:50;100273.40;;;30.30
68939;BMP180;59064;45.294;11.816;2023-08-06T11:01:16;100271.00;;;30.40
68939;BMP180;59064;45.294;11.816;2023-08-06T11:03:43;100270.00;;;30.20
68939;BMP180;59064;45.294;11.816;2023-08-06T11:06:10;100271.20;;;30.20
68939;BMP180;59064;45.294;11.816;2023-08-06T11:08:42;100265.60;;;30.42
68939;BMP180;59064;45.294;11.816;2023-08-06T11:11:16;100269.40;;;30.50
68939;BMP180;59064;45.294;11.816;2023-08-06T11:13:43;100266.00;;;30.34
68939;BMP180;59064;45.294;11.816;2023-08-06T11:16:20;100273.20;;;30.36
68939;BMP180;59064;45.294;11.816;2023-08-06T11:18:46;100273.00;;;30.74
68939;BMP180;59064;45.294;11.816;2023-08-06T11:21:13;100271.00;;;31.12
68939;BMP180;59064;45.294;11.816;2023-08-06T11:23:40;100277.00;;;31.20
68939;BMP180;59064;45.294;11.816;2023-08-06T11:26:06;100278.40;;;31.30
68939;BMP180;59064;45.294;11.816;2023-08-06T11:28:32;100275.20;;;31.34
68939;BMP180;59064;45.294;11.816;2023-08-06T11:30:58;100266.00;;;31.60
68939;BMP180;59064;45.294;11.816;2023-08-06T11:33:28;100262.20;;;31.92
68939;BMP180;59064;45.294;11.816;2023-08-06T11:35:55;100260.60;;;32.30
68939;BMP180;59064;45.294;11.816;2023-08-06T11:38:24;100263.20;;;32.50
68939;BMP180;59064;45.294;11.816;2023-08-06T11:40:50;100255.60;;;32.24
68939;BMP180;59064;45.294;11.816;2023-08-06T11:43:19;100253.60;;;32.10
68939;BMP180;59064;45.294;11.816;2023-08-06T11:45:46;100253.60;;;31.90
68939;BMP180;59064;45.294;11.816;2023-08-06T11:48:12;100250.40;;;31.80
68939;BMP180;59064;45.294;11.816;2023-08-06T11:50:38;100244.00;;;31.60
68939;BMP180;59064;45.294;11.816;2023-08-06T11:53:04;100249.20;;;31.80
68939;BMP180;59064;45.294;11.816;2023-08-06T11:55:30;100250.20;;;32.00
68939;BMP180;59064;45.294;11.816;2023-08-06T11:57:57;100255.00;;;31.70
68939;BMP180;59064;45.294;11.816;2023-08-06T12:00:24;100259.00;;;31.90
68939;BMP180;59064;45.294;11.816;2023-08-06T12:02:51;100255.40;;;32.30
68939;BMP180;59064;45.294;11.816;2023-08-06T12:05:31;100249.80;;;32.40
68939;BMP180;59064;45.294;11.816;2023-08-06T12:08:00;100250.80;;;32.30
68939;BMP180;59064;45.294;11.816;2023-08-06T12:10:29;100246.40;;;32.10
68939;BMP180;59064;45.294;11.816;2023-08-06T12:12:56;100247.40;;;31.70
68939;BMP180;59064;45.294;11.816;2023-08-06T12:15:22;100255.00;;;31.50
68939;BMP180;59064;45.294;11.816;2023-08-06T12:17:48;100256.60;;;31.00
68939;BMP180;59064;45.294;11.816;2023-08-06T12:20:13;100259.00;;;30.70
68939;BMP180;59064;45.294;11.816;2023-08-06T12:22:48;100260.00;;;30.40
68939;BMP180;59064;45.294;11.816;2023-08-06T12:25:14;100263.40;;;30.06
68939;BMP180;59064;45.294;11.816;2023-08-06T12:27:42;100259.40;;;29.80
68939;BMP180;59064;45.294;11.816;2023-08-06T12:30:08;100247.40;;;29.60
68939;BMP180;59064;45.294;11.816;2023-08-06T12:32:34;100250.40;;;29.40
68939;BMP180;59064;45.294;11.816;2023-08-06T12:35:00;100261.80;;;29.10
68939;BMP180;59064;45.294;11.816;2023-08-06T12:37:27;100267.80;;;29.10
68939;BMP180;59064;45.294;11.816;2023-08-06T12:39:53;100275.40;;;29.00
68939;BMP180;59064;45.294;11.816;2023-08-06T12:42:19;100279.40;;;28.80
68939;BMP180;59064;45.294;11.816;2023-08-06T12:44:44;100278.40;;;28.66
68939;BMP180;59064;45.294;11.816;2023-08-06T12:47:10;100284.40;;;28.60
68939;BMP180;59064;45.294;11.816;2023-08-06T12:49:36;100287.60;;;28.40
68939;BMP180;59064;45.294;11.816;2023-08-06T12:52:02;100288.60;;;28.30
68939;BMP180;59064;45.294;11.816;2023-08-06T12:54:30;100295.80;;;28.10
68939;BMP180;59064;45.294;11.816;2023-08-06T12:57:02;100289.80;;;27.76
68939;BMP180;59064;45.294;11.816;2023-08-06T12:59:28;100288.00;;;27.52
68939;BMP180;59064;45.294;11.816;2023-08-06T13:01:53;100281.40;;;27.50
68939;BMP180;59064;45.294;11.816;2023-08-06T13:04:19;100273.80;;;27.60
68939;BMP180;59064;45.294;11.816;2023-08-06T13:06:45;100263.20;;;27.58
68939;BMP180;59064;45.294;11.816;2023-08-06T13:09:10;100269.20;;;27.48
68939;BMP180;59064;45.294;11.816;2023-08-06T13:11:37;100262.00;;;27.30
68939;BMP180;59064;45.294;11.816;2023-08-06T13:16:33;100258.00;;;27.24
68939;BMP180;59064;45.294;11.816;2023-08-06T13:18:59;100258.00;;;27.30
68939;BMP180;59064;45.294;11.816;2023-08-06T13:21:35;100260.40;;;27.30
68939;BMP180;59064;45.294;11.816;2023-08-06T13:24:02;100260.20;;;27.40
68939;BMP180;59064;45.294;11.816;2023-08-06T13:26:31;100255.40;;;27.64
68939;BMP180;59064;45.294;11.816;2023-08-06T13:28:58;100252.80;;;27.92
68939;BMP180;59064;45.294;11.816;2023-08-06T13:31:25;100249.80;;;28.48
68939;BMP180;59064;45.294;11.816;2023-08-06T13:33:51;100250.40;;;29.02
68939;BMP180;59064;45.294;11.816;2023-08-06T13:36:17;100252.20;;;29.60
68939;BMP180;59064;45.294;11.816;2023-08-06T13:38:43;100240.80;;;30.20
68939;BMP180;59064;45.294;11.816;2023-08-06T13:41:08;100241.00;;;30.56
68939;BMP180;59064;45.294;11.816;2023-08-06T13:43:34;100240.80;;;30.38
68939;BMP180;59064;45.294;11.816;2023-08-06T13:46:00;100241.40;;;29.84
68939;BMP180;59064;45.294;11.816;2023-08-06T13:48:25;100251.00;;;29.48
68939;BMP180;59064;45.294;11.816;2023-08-06T13:50:51;100250.00;;;29.02
68939;BMP180;59064;45.294;11.816;2023-08-06T13:53:17;100248.00;;;29.56
68939;BMP180;59064;45.294;11.816;2023-08-06T13:55:42;100253.20;;;30.62